createdAt,value
2019-02-19T00:03:14.472Z,9.67
2019-02-19T00:08:20.364Z,6.47
2019-02-19T00:13:26.954Z,7.07
2019-02-19T00:18:33.989Z,8.50
2019-02-19T00:23:39.535Z,8.43
2019-02-19T00:28:45.773Z,7.03
2019-02-19T00:33:51.624Z,10.87
2019-02-19T00:38:59.434Z,9.53
2019-02-19T00:44:06.937Z,7.67
2019-02-19T00:49:13.429Z,7.60
2019-02-19T00:54:31.604Z,7.60
2019-02-19T00:59:38.916Z,7.73
2019-02-19T01:04:44.437Z,10.67
2019-02-19T01:09:51.231Z,7.60
2019-02-19T01:14:56.726Z,7.80
2019-02-19T01:20:01.932Z,7.27
2019-02-19T01:25:08.889Z,8.23
2019-02-19T01:30:16.797Z,6.77
2019-02-19T01:35:22.191Z,7.73
2019-02-19T01:40:27.645Z,10.90
2019-02-19T01:45:34.346Z,9.10
2019-02-19T01:50:40.734Z,8.33
2019-02-19T01:55:46.754Z,7.57
2019-02-19T02:00:52.484Z,9.47
2019-02-19T02:05:58.595Z,11.37
2019-02-19T02:11:05.370Z,8.33
2019-02-19T02:16:11.212Z,8.77
2019-02-19T02:21:19.105Z,11.90
2019-02-19T02:26:26.066Z,10.00
2019-02-19T02:31:32.289Z,11.40
2019-02-19T02:36:39.344Z,13.37
2019-02-19T02:41:46.518Z,15.77
2019-02-19T02:46:52.725Z,15.90
2019-02-19T02:51:58.757Z,17.23
2019-02-19T02:57:04.941Z,17.47
2019-02-19T03:02:13.503Z,20.17
2019-02-19T03:07:34.581Z,21.33
2019-02-19T03:12:41.296Z,26.90
2019-02-19T03:17:47.821Z,29.73
2019-02-19T03:22:54.480Z,31.73
2019-02-19T03:28:01.379Z,32.63
2019-02-19T03:33:06.610Z,27.23
2019-02-19T03:38:12.292Z,26.47
2019-02-19T03:43:19.138Z,21.70
2019-02-19T03:48:25.344Z,26.67
2019-02-19T03:53:31.667Z,26.57
2019-02-19T03:58:38.096Z,22.37
2019-02-19T04:03:44.540Z,19.67
2019-02-19T04:08:49.393Z,23.80
2019-02-19T04:13:56.134Z,19.50
2019-02-19T04:19:02.789Z,20.57
2019-02-19T04:24:09.209Z,18.30
2019-02-19T04:29:16.426Z,18.37
2019-02-19T04:34:23.239Z,15.53
2019-02-19T04:39:29.803Z,16.13
2019-02-19T04:44:35.808Z,17.80
2019-02-19T04:49:43.405Z,18.37
2019-02-19T04:54:49.804Z,17.50
2019-02-19T04:59:55.853Z,19.47
2019-02-19T05:05:01.617Z,18.03
2019-02-19T05:10:09.884Z,17.43
2019-02-19T05:15:15.944Z,17.60
2019-02-19T05:20:22.172Z,15.63
2019-02-19T05:25:27.941Z,17.30
2019-02-19T05:30:34.211Z,19.27
2019-02-19T05:35:41.501Z,24.00
2019-02-19T05:40:47.681Z,24.47
2019-02-19T05:45:54.407Z,22.50
2019-02-19T05:51:01.901Z,25.10
2019-02-19T05:56:07.609Z,24.00
2019-02-19T06:01:14.711Z,27.37
2019-02-19T06:06:21.640Z,25.43
2019-02-19T06:11:27.411Z,24.27
2019-02-19T06:16:32.944Z,25.53
2019-02-19T06:21:40.018Z,25.57
2019-02-19T06:26:46.836Z,27.13
2019-02-19T06:31:52.404Z,29.93
2019-02-19T06:36:58.877Z,28.47
2019-02-19T06:42:06.236Z,30.03
2019-02-19T06:47:12.743Z,29.87
2019-02-19T06:52:20.009Z,28.20
2019-02-19T06:57:25.817Z,33.30
2019-02-19T07:02:58.611Z,28.13
2019-02-19T07:08:04.872Z,32.77
2019-02-19T07:13:10.663Z,31.53
2019-02-19T07:18:16.986Z,30.53
2019-02-19T07:23:22.201Z,29.40
2019-02-19T07:28:27.745Z,34.33
2019-02-19T07:33:34.589Z,31.67
2019-02-19T07:38:42.419Z,33.30
2019-02-19T07:43:49.103Z,33.23
2019-02-19T07:48:55.174Z,31.60
2019-02-19T07:54:01.576Z,28.17
2019-02-19T07:59:08.730Z,28.97
2019-02-19T08:04:14.271Z,31.23
2019-02-19T08:09:20.975Z,26.87
2019-02-19T08:14:40.300Z,29.00
2019-02-19T08:25:49.364Z,27.40
2019-02-19T08:30:55.917Z,25.47
2019-02-19T08:36:01.110Z,25.03
2019-02-19T08:41:07.869Z,28.77
2019-02-19T08:46:13.146Z,22.93
2019-02-19T08:51:18.935Z,30.00
2019-02-19T08:56:24.574Z,24.67
2019-02-19T09:01:35.551Z,20.87
2019-02-19T09:06:41.349Z,22.07
2019-02-19T09:11:49.652Z,21.00
2019-02-19T09:16:55.685Z,19.60
2019-02-19T09:22:02.252Z,19.10
2019-02-19T09:27:08.594Z,25.40
2019-02-19T09:32:14.360Z,21.53
2019-02-19T09:37:20.740Z,18.43
2019-02-19T09:42:26.551Z,18.90
2019-02-19T09:47:32.206Z,22.23
2019-02-19T09:52:39.029Z,19.87
2019-02-19T09:57:44.792Z,17.37
2019-02-19T10:02:51.353Z,19.77
2019-02-19T10:07:57.423Z,18.30
2019-02-19T10:13:05.053Z,14.60
2019-02-19T10:18:11.316Z,15.47
2019-02-19T10:23:17.204Z,18.87
2019-02-19T10:28:24.050Z,17.43
2019-02-19T10:33:30.041Z,14.53
2019-02-19T10:38:35.754Z,14.57
2019-02-19T10:43:41.639Z,12.27
2019-02-19T10:48:48.037Z,13.13
2019-02-19T10:53:53.889Z,11.30
2019-02-19T10:58:59.977Z,15.13
2019-02-19T11:04:06.716Z,11.07
2019-02-19T11:09:13.854Z,15.37
2019-02-19T11:14:20.751Z,12.50
2019-02-19T11:19:26.406Z,14.50
2019-02-19T11:24:31.568Z,17.10
2019-02-19T11:29:37.717Z,11.37
2019-02-19T11:34:43.537Z,14.57
2019-02-19T11:39:49.756Z,13.07
2019-02-19T11:44:55.961Z,16.87
2019-02-19T11:50:02.037Z,14.90
2019-02-19T11:55:08.059Z,12.33
2019-02-19T12:00:18.722Z,11.00
2019-02-19T12:05:25.022Z,15.03
2019-02-19T12:10:31.544Z,13.40
2019-02-19T12:15:38.073Z,12.90
2019-02-19T12:20:43.993Z,13.10
2019-02-19T12:25:49.713Z,13.30
2019-02-19T12:30:54.932Z,11.53
2019-02-19T12:36:00.768Z,13.50
2019-02-19T12:41:29.638Z,10.90
2019-02-19T12:46:35.156Z,13.47
2019-02-19T12:51:40.853Z,10.90
2019-02-19T12:56:47.837Z,15.17
2019-02-19T13:01:53.546Z,9.53
2019-02-19T13:07:00.401Z,11.87
2019-02-19T13:12:07.405Z,9.60
2019-02-19T13:17:13.670Z,11.03
2019-02-19T13:22:20.754Z,11.50
2019-02-19T13:27:27.116Z,10.87
2019-02-19T13:32:33.228Z,12.90
2019-02-19T13:37:40.373Z,8.57
2019-02-19T13:42:46.302Z,12.27
2019-02-19T13:47:53.837Z,12.00
2019-02-19T13:53:07.900Z,8.87
2019-02-19T13:58:14.854Z,10.83
2019-02-19T14:03:22.306Z,9.23
2019-02-19T14:08:31.190Z,10.13
2019-02-19T14:13:38.501Z,10.53
2019-02-19T14:18:50.664Z,9.60
2019-02-19T14:24:33.173Z,9.47
2019-02-19T14:30:04.989Z,7.70
2019-02-19T14:35:39.021Z,10.67
2019-02-19T14:41:12.128Z,12.87
2019-02-19T14:46:39.575Z,7.07
2019-02-19T14:52:07.059Z,8.00
2019-02-19T14:57:30.105Z,6.53
2019-02-19T15:02:58.500Z,6.77
2019-02-19T15:08:29.333Z,8.93
2019-02-19T15:13:44.922Z,8.67
2019-02-19T15:19:09.654Z,7.23
2019-02-19T15:24:34.038Z,8.17
2019-02-19T15:29:58.042Z,6.93
2019-02-19T15:35:23.570Z,9.00
2019-02-19T15:41:01.506Z,9.37
2019-02-19T15:46:29.158Z,8.23
2019-02-19T15:51:52.282Z,10.47
2019-02-19T15:57:28.264Z,9.97
2019-02-19T16:02:39.877Z,7.97
2019-02-19T16:07:54.590Z,7.77
2019-02-19T16:13:08.164Z,9.23
2019-02-19T16:18:22.471Z,10.83
2019-02-19T16:23:58.564Z,9.43
2019-02-19T16:29:25.591Z,9.40
2019-02-19T16:34:50.654Z,12.63
2019-02-19T16:40:21.298Z,8.27
2019-02-19T16:46:02.364Z,12.23
2019-02-19T16:51:33.158Z,9.43
2019-02-19T16:56:47.991Z,10.67
2019-02-19T17:02:05.517Z,9.07
2019-02-19T17:07:20.524Z,10.70
2019-02-19T17:12:44.082Z,11.07
2019-02-19T17:18:07.813Z,11.23
2019-02-19T17:23:28.912Z,8.90
2019-02-19T17:28:53.950Z,9.67
2019-02-19T17:34:08.096Z,7.27
2019-02-19T17:39:47.924Z,7.90
2019-02-19T17:45:18.490Z,8.70
2019-02-19T17:50:40.731Z,8.13
2019-02-19T17:56:01.559Z,7.93
2019-02-19T18:01:27.053Z,8.77
2019-02-19T18:06:53.416Z,6.10
2019-02-19T18:12:09.337Z,6.57
2019-02-19T18:17:34.955Z,5.40
2019-02-19T18:22:42.161Z,7.87
2019-02-19T18:27:48.443Z,9.07
2019-02-19T18:32:53.976Z,9.87
2019-02-19T18:37:59.997Z,8.77
2019-02-19T18:43:07.399Z,7.73
2019-02-19T18:48:14.591Z,10.53
2019-02-19T18:53:21.973Z,11.47
2019-02-19T18:58:28.350Z,12.17
2019-02-19T19:03:36.377Z,11.20
2019-02-19T19:08:43.206Z,14.13
2019-02-19T19:13:50.612Z,10.83
2019-02-19T19:18:55.754Z,10.53
2019-02-19T19:24:04.082Z,12.40
2019-02-19T19:29:10.445Z,13.17
2019-02-19T19:34:17.666Z,11.43
2019-02-19T19:39:24.799Z,11.77
2019-02-19T19:44:30.393Z,11.23
2019-02-19T19:49:36.454Z,12.43
2019-02-19T19:54:43.192Z,12.57
2019-02-19T19:59:49.136Z,14.57
2019-02-19T20:04:56.631Z,10.30
2019-02-19T20:10:02.254Z,13.27
2019-02-19T20:15:08.956Z,22.60
2019-02-19T20:20:25.771Z,16.37
2019-02-19T20:25:33.779Z,15.50
2019-02-19T20:30:39.630Z,14.00
2019-02-19T20:35:45.132Z,15.83
2019-02-19T20:40:51.426Z,11.03
2019-02-19T20:46:09.314Z,13.80
2019-02-19T20:51:15.813Z,16.13
2019-02-19T20:56:24.225Z,9.43
2019-02-19T21:01:29.244Z,11.97
2019-02-19T21:06:35.964Z,9.27
2019-02-19T21:11:41.410Z,11.60
2019-02-19T21:16:47.343Z,14.90
2019-02-19T21:21:53.236Z,13.47
2019-02-19T21:26:59.489Z,15.63
2019-02-19T21:32:07.414Z,11.67
2019-02-19T21:37:13.587Z,12.07
2019-02-19T21:42:19.896Z,11.13
2019-02-19T21:47:26.244Z,9.47
2019-02-19T21:52:32.850Z,10.07
2019-02-19T21:57:38.375Z,15.07
2019-02-19T22:02:43.885Z,13.23
2019-02-19T22:07:50.600Z,10.60
2019-02-19T22:12:56.202Z,12.07
2019-02-19T22:18:02.574Z,13.30
2019-02-19T22:23:09.038Z,14.03
2019-02-19T22:28:14.654Z,9.70
2019-02-19T22:33:20.559Z,13.43
2019-02-19T22:38:26.512Z,11.83
2019-02-19T22:43:32.789Z,13.60
2019-02-19T22:48:38.328Z,12.57
2019-02-19T22:54:01.398Z,11.90
2019-02-19T22:59:07.624Z,13.50
2019-02-19T23:04:14.790Z,15.07
2019-02-19T23:09:20.588Z,13.37
2019-02-19T23:14:27.083Z,13.87
2019-02-19T23:19:33.374Z,12.97
2019-02-19T23:24:39.597Z,11.13
2019-02-19T23:29:45.709Z,10.20
2019-02-19T23:35:10.693Z,15.70
2019-02-19T23:40:16.928Z,13.27
2019-02-19T23:45:22.220Z,13.57
2019-02-19T23:50:29.130Z,11.03
2019-02-19T23:55:34.307Z,11.60
